Time;durP1;ratioP1;P1;durP2;ratioP2;P2;SDS_P1;SDS_P2;PMS_P1;PMS_P2;Temp;Humidity;BMP_temperature;BMP_pressure;BME280_temperature;BME280_humidity;BME280_pressure;Samples;Min_cycle;Max_cycle;Signal;HPM_P1;HPM_P2
2021/08/18 00:00:19;;;;;;;;;;;24.80;46.40;;;;;;491826;240;986;-70
2021/08/18 00:02:21;;;;;;;;;;;24.80;46.30;;;;;;491544;240;2177;-70
2021/08/18 00:04:22;;;;;;;;;;;24.80;46.40;;;;;;491661;240;1030;-71
2021/08/18 00:06:23;;;;;;;;;;;24.80;46.40;;;;;;491652;240;1068;-70
2021/08/18 00:08:25;;;;;;;;;;;24.80;46.30;;;;;;491527;240;1168;-70
2021/08/18 00:10:26;;;;;;;;;;;24.80;46.40;;;;;;491687;240;981;-70
2021/08/18 00:12:28;;;;;;;;;;;24.80;46.20;;;;;;491646;240;1499;-70
2021/08/18 00:14:29;;;;;;;;;;;24.80;46.30;;;;;;491649;240;1026;-70
2021/08/18 00:16:30;;;;;;;;;;;24.70;46.30;;;;;;491625;240;957;-70
2021/08/18 00:18:32;;;;;;;;;;;24.70;46.40;;;;;;491571;240;1107;-70
2021/08/18 00:20:33;;;;;;;;;;;24.80;46.40;;;;;;491586;240;1060;-70
2021/08/18 00:22:34;;;;;;;;;;;24.80;46.30;;;;;;491546;240;2156;-70
2021/08/18 00:24:36;;;;;;;;;;;24.80;46.20;;;;;;491609;240;1044;-70
2021/08/18 00:26:37;;;;;;;;;;;24.80;46.10;;;;;;491562;240;1070;-70
2021/08/18 00:28:38;;;;;;;;;;;24.80;46.20;;;;;;491650;240;989;-70
2021/08/18 00:30:40;;;;;;;;;;;24.70;46.30;;;;;;491650;240;1145;-70
2021/08/18 00:32:41;;;;;;;;;;;24.60;46.30;;;;;;491625;240;976;-70
2021/08/18 00:34:42;;;;;;;;;;;24.70;46.30;;;;;;491657;240;1053;-70
2021/08/18 00:36:44;;;;;;;;;;;24.60;46.40;;;;;;491606;240;959;-71
2021/08/18 00:38:45;;;;;;;;;;;24.60;46.30;;;;;;491603;240;1169;-70
2021/08/18 00:40:46;;;;;;;;;;;24.80;46.10;;;;;;491631;240;1037;-70
2021/08/18 00:42:48;;;;;;;;;;;24.80;46.20;;;;;;491646;240;2199;-70
2021/08/18 00:44:49;;;;;;;;;;;24.70;46.20;;;;;;491650;240;956;-69
2021/08/18 00:46:50;;;;;;;;;;;24.80;45.90;;;;;;491593;240;1060;-70
2021/08/18 00:48:52;;;;;;;;;;;24.90;45.90;;;;;;491630;240;1069;-70
2021/08/18 00:50:53;;;;;;;;;;;24.80;45.90;;;;;;491563;240;1072;-70
2021/08/18 00:52:54;;;;;;;;;;;24.80;46.10;;;;;;491546;240;1304;-70
2021/08/18 00:54:55;;;;;;;;;;;24.80;46.10;;;;;;491591;240;1018;-70
2021/08/18 00:56:57;;;;;;;;;;;24.80;46.10;;;;;;491633;240;1145;-70
2021/08/18 00:58:58;;;;;;;;;;;24.90;46.00;;;;;;491590;240;1055;-70
2021/08/18 01:01:00;;;;;;;;;;;24.90;46.00;;;;;;491659;240;1070;-69
2021/08/18 01:03:01;;;;;;;;;;;24.80;46.00;;;;;;491597;240;2144;-70
2021/08/18 01:05:02;;;;;;;;;;;24.70;46.30;;;;;;491667;240;1180;-70
2021/08/18 01:07:03;;;;;;;;;;;24.70;46.30;;;;;;491608;240;1120;-71
2021/08/18 01:09:05;;;;;;;;;;;24.80;46.10;;;;;;491600;240;1181;-70
2021/08/18 01:11:06;;;;;;;;;;;24.80;46.10;;;;;;491596;240;1229;-70
2021/08/18 01:13:07;;;;;;;;;;;24.90;46.10;;;;;;491631;240;1161;-70
2021/08/18 01:15:09;;;;;;;;;;;24.80;46.10;;;;;;491622;240;1151;-70
2021/08/18 01:17:10;;;;;;;;;;;24.90;46.00;;;;;;491616;240;1134;-70
2021/08/18 01:19:12;;;;;;;;;;;24.90;46.00;;;;;;491612;240;1144;-70
2021/08/18 01:21:13;;;;;;;;;;;24.90;46.00;;;;;;491638;240;1121;-70
2021/08/18 01:23:14;;;;;;;;;;;24.90;45.90;;;;;;491587;240;2184;-70
2021/08/18 01:25:16;;;;;;;;;;;25.00;45.90;;;;;;491658;240;1069;-70
2021/08/18 01:27:17;;;;;;;;;;;24.90;45.90;;;;;;491570;240;1074;-70
2021/08/18 01:29:18;;;;;;;;;;;24.90;46.00;;;;;;491655;240;1041;-70
2021/08/18 01:31:20;;;;;;;;;;;24.80;46.00;;;;;;491640;240;1069;-70
2021/08/18 01:33:23;;;;;;;;;;;24.80;46.10;;;;;;491657;240;1045;-70
2021/08/18 01:35:24;;;;;;;;;;;24.90;46.10;;;;;;491598;240;960;-70
2021/08/18 01:37:25;;;;;;;;;;;24.90;45.90;;;;;;491663;240;1047;-70
2021/08/18 01:39:27;;;;;;;;;;;24.90;46.00;;;;;;491556;240;1174;-70
2021/08/18 01:41:28;;;;;;;;;;;24.80;45.90;;;;;;491577;240;1326;-70
2021/08/18 01:43:29;;;;;;;;;;;24.80;46.00;;;;;;491560;240;2152;-70
2021/08/18 01:45:31;;;;;;;;;;;24.90;46.00;;;;;;491582;240;982;-70
2021/08/18 01:47:32;;;;;;;;;;;24.70;46.20;;;;;;491523;240;1112;-70
2021/08/18 01:49:33;;;;;;;;;;;24.80;46.00;;;;;;491529;240;1095;-70
2021/08/18 01:51:35;;;;;;;;;;;24.80;46.10;;;;;;491508;240;1070;-70
2021/08/18 01:53:36;;;;;;;;;;;24.80;46.10;;;;;;491674;240;1152;-70
2021/08/18 01:55:37;;;;;;;;;;;24.70;46.20;;;;;;491635;240;954;-70
2021/08/18 01:57:38;;;;;;;;;;;24.80;46.20;;;;;;491623;240;1096;-70
2021/08/18 01:59:40;;;;;;;;;;;24.80;46.10;;;;;;491720;240;1051;-70
2021/08/18 02:01:41;;;;;;;;;;;24.80;46.20;;;;;;491595;240;1130;-70
2021/08/18 02:03:42;;;;;;;;;;;24.80;46.10;;;;;;491632;240;2139;-70
2021/08/18 02:05:44;;;;;;;;;;;24.80;46.10;;;;;;491625;240;984;-70
2021/08/18 02:07:45;;;;;;;;;;;24.70;46.20;;;;;;491608;240;1010;-70
2021/08/18 02:09:46;;;;;;;;;;;24.70;46.10;;;;;;491659;240;1271;-70
2021/08/18 02:11:48;;;;;;;;;;;24.70;46.20;;;;;;491567;240;1129;-70
2021/08/18 02:13:49;;;;;;;;;;;24.70;46.20;;;;;;491541;240;1158;-70
2021/08/18 02:15:50;;;;;;;;;;;24.70;46.20;;;;;;491529;240;1142;-71
2021/08/18 02:17:52;;;;;;;;;;;24.80;46.20;;;;;;491575;240;1181;-69
2021/08/18 02:19:53;;;;;;;;;;;24.80;46.20;;;;;;491619;240;1070;-70
2021/08/18 02:21:54;;;;;;;;;;;24.80;46.10;;;;;;491546;240;1453;-70
2021/08/18 02:23:56;;;;;;;;;;;24.80;46.00;;;;;;491611;240;2187;-70
2021/08/18 02:25:57;;;;;;;;;;;24.70;46.20;;;;;;491612;240;1153;-70
2021/08/18 02:27:58;;;;;;;;;;;24.70;46.10;;;;;;491711;240;1128;-70
2021/08/18 02:30:00;;;;;;;;;;;24.80;46.10;;;;;;491645;240;1042;-70
2021/08/18 02:32:01;;;;;;;;;;;24.80;46.10;;;;;;491608;240;1114;-70
2021/08/18 02:34:02;;;;;;;;;;;24.50;46.50;;;;;;491618;240;1166;-70
2021/08/18 02:36:04;;;;;;;;;;;24.60;46.30;;;;;;491574;240;1024;-70
2021/08/18 02:38:05;;;;;;;;;;;24.70;46.30;;;;;;491610;240;1385;-70
2021/08/18 02:40:06;;;;;;;;;;;24.90;46.10;;;;;;491582;240;1186;-70
2021/08/18 02:42:08;;;;;;;;;;;24.80;46.10;;;;;;491602;240;1230;-70
2021/08/18 02:44:09;;;;;;;;;;;24.80;46.20;;;;;;491575;240;2144;-70
2021/08/18 02:46:10;;;;;;;;;;;24.80;46.30;;;;;;491538;240;1406;-70
2021/08/18 02:48:12;;;;;;;;;;;24.80;46.20;;;;;;491611;240;1038;-70
2021/08/18 02:50:13;;;;;;;;;;;24.70;46.30;;;;;;491666;240;1014;-70
2021/08/18 02:52:14;;;;;;;;;;;24.80;46.30;;;;;;491558;240;1189;-70
2021/08/18 02:54:16;;;;;;;;;;;24.70;46.30;;;;;;491558;240;1170;-70
2021/08/18 02:56:17;;;;;;;;;;;24.70;46.50;;;;;;491599;240;1145;-70
2021/08/18 02:58:18;;;;;;;;;;;24.60;46.60;;;;;;491568;240;1070;-70
2021/08/18 03:00:21;;;;;;;;;;;24.80;46.50;;;;;;491576;240;1058;-70
2021/08/18 03:02:21;;;;;;;;;;;24.70;46.40;;;;;;491598;240;1425;-70
2021/08/18 03:04:23;;;;;;;;;;;24.70;46.40;;;;;;491656;240;2168;-70
2021/08/18 03:06:24;;;;;;;;;;;24.80;46.30;;;;;;491561;240;1590;-70
2021/08/18 03:08:25;;;;;;;;;;;24.80;46.20;;;;;;491533;240;1118;-70
2021/08/18 03:10:27;;;;;;;;;;;24.70;46.30;;;;;;491543;240;1204;-70
2021/08/18 03:12:28;;;;;;;;;;;24.70;46.30;;;;;;491572;240;1042;-70
2021/08/18 03:14:29;;;;;;;;;;;24.60;46.40;;;;;;491651;240;1038;-70
2021/08/18 03:16:31;;;;;;;;;;;24.70;46.50;;;;;;491606;240;1098;-70
2021/08/18 03:18:32;;;;;;;;;;;24.70;46.40;;;;;;491626;240;1082;-70
2021/08/18 03:20:33;;;;;;;;;;;24.70;46.40;;;;;;491620;240;1047;-70
2021/08/18 03:22:35;;;;;;;;;;;24.80;46.50;;;;;;491558;240;1091;-70
2021/08/18 03:24:36;;;;;;;;;;;24.70;46.40;;;;;;491500;240;2192;-70
2021/08/18 03:26:37;;;;;;;;;;;24.80;46.40;;;;;;491551;240;1106;-70
2021/08/18 03:28:39;;;;;;;;;;;24.80;46.30;;;;;;491560;240;1074;-70
2021/08/18 03:30:40;;;;;;;;;;;24.80;46.40;;;;;;491610;240;1105;-71
2021/08/18 03:32:41;;;;;;;;;;;24.80;46.30;;;;;;491503;240;1117;-70
2021/08/18 03:34:42;;;;;;;;;;;24.70;46.40;;;;;;491587;240;965;-71
2021/08/18 03:36:44;;;;;;;;;;;24.60;46.50;;;;;;491553;240;1205;-70
2021/08/18 03:38:45;;;;;;;;;;;24.80;46.40;;;;;;491597;240;1085;-70
2021/08/18 03:40:46;;;;;;;;;;;24.70;46.40;;;;;;491584;240;1202;-69
2021/08/18 03:42:48;;;;;;;;;;;24.80;46.50;;;;;;491625;240;1088;-70
2021/08/18 03:44:49;;;;;;;;;;;24.80;46.40;;;;;;491585;240;2191;-71
2021/08/18 03:46:50;;;;;;;;;;;24.80;46.30;;;;;;491543;240;1172;-70
2021/08/18 03:48:52;;;;;;;;;;;24.80;46.30;;;;;;491602;240;1063;-70
2021/08/18 03:50:53;;;;;;;;;;;24.80;46.40;;;;;;491724;240;1098;-70
2021/08/18 03:52:54;;;;;;;;;;;24.80;46.20;;;;;;491543;240;1491;-70
2021/08/18 03:54:56;;;;;;;;;;;24.70;46.40;;;;;;491559;240;1174;-70
2021/08/18 03:56:57;;;;;;;;;;;24.80;46.40;;;;;;491646;240;1568;-70
2021/08/18 03:58:58;;;;;;;;;;;24.70;46.40;;;;;;491526;240;1079;-70
2021/08/18 04:01:00;;;;;;;;;;;24.80;46.40;;;;;;491590;240;1005;-70
2021/08/18 04:03:01;;;;;;;;;;;24.80;46.50;;;;;;491523;240;1191;-70
2021/08/18 04:05:02;;;;;;;;;;;24.80;46.50;;;;;;491533;240;2188;-70
2021/08/18 04:07:04;;;;;;;;;;;24.80;46.40;;;;;;491521;240;1314;-69
2021/08/18 04:09:05;;;;;;;;;;;24.80;46.50;;;;;;491476;240;1138;-69
2021/08/18 04:11:09;;;;;;;;;;;24.80;46.50;;;;;;491368;240;1178;-69
2021/08/18 04:13:08;;;;;;;;;;;24.80;46.40;;;;;;491521;240;1404;-70
2021/08/18 04:15:09;;;;;;;;;;;24.80;46.30;;;;;;491653;240;990;-69
2021/08/18 04:17:10;;;;;;;;;;;24.80;46.30;;;;;;491517;240;1215;-69
2021/08/18 04:19:12;;;;;;;;;;;24.80;46.50;;;;;;491502;240;1193;-69
2021/08/18 04:21:13;;;;;;;;;;;24.80;46.60;;;;;;491479;240;1389;-69
2021/08/18 04:23:14;;;;;;;;;;;24.80;46.50;;;;;;491485;240;1146;-69
2021/08/18 04:25:15;;;;;;;;;;;24.80;46.30;;;;;;491417;240;2191;-70
2021/08/18 04:27:17;;;;;;;;;;;24.90;46.40;;;;;;491492;240;1115;-70
2021/08/18 04:29:18;;;;;;;;;;;24.80;46.50;;;;;;491509;240;1405;-70
2021/08/18 04:31:20;;;;;;;;;;;24.70;46.50;;;;;;491477;240;1185;-70
2021/08/18 04:33:21;;;;;;;;;;;24.70;46.60;;;;;;491416;240;1049;-70
2021/08/18 04:35:22;;;;;;;;;;;24.80;46.50;;;;;;491445;240;1099;-70
2021/08/18 04:37:24;;;;;;;;;;;24.70;46.60;;;;;;491459;240;1072;-70
2021/08/18 04:39:25;;;;;;;;;;;24.80;46.70;;;;;;491517;240;1236;-70
2021/08/18 04:41:26;;;;;;;;;;;24.70;46.70;;;;;;491460;240;1411;-70
2021/08/18 04:43:28;;;;;;;;;;;24.70;46.70;;;;;;491386;240;1098;-70
2021/08/18 04:45:29;;;;;;;;;;;24.70;46.70;;;;;;491411;240;2148;-70
2021/08/18 04:47:30;;;;;;;;;;;24.60;46.80;;;;;;491333;240;1154;-70
2021/08/18 04:49:32;;;;;;;;;;;24.60;46.70;;;;;;491354;240;1131;-70
2021/08/18 04:51:33;;;;;;;;;;;24.70;46.70;;;;;;491324;240;1125;-69
2021/08/18 04:53:35;;;;;;;;;;;24.80;46.60;;;;;;491292;240;1637;-70
2021/08/18 04:55:36;;;;;;;;;;;24.80;46.70;;;;;;491281;240;1293;-70
2021/08/18 04:57:37;;;;;;;;;;;24.80;46.50;;;;;;491283;240;1119;-70
2021/08/18 04:59:38;;;;;;;;;;;24.70;46.60;;;;;;491350;240;1061;-70
2021/08/18 05:01:40;;;;;;;;;;;24.70;46.80;;;;;;491251;240;1336;-69
2021/08/18 05:03:41;;;;;;;;;;;24.60;46.80;;;;;;491378;240;1214;-69
2021/08/18 05:05:43;;;;;;;;;;;24.60;46.80;;;;;;491374;240;2180;-70
2021/08/18 05:07:44;;;;;;;;;;;24.70;46.80;;;;;;491355;240;1102;-70
2021/08/18 05:09:45;;;;;;;;;;;24.80;46.70;;;;;;491462;240;1045;-70
2021/08/18 05:11:47;;;;;;;;;;;24.80;46.70;;;;;;491375;240;1294;-70
2021/08/18 05:13:48;;;;;;;;;;;24.80;46.60;;;;;;491262;240;1087;-71
2021/08/18 05:15:49;;;;;;;;;;;24.90;46.40;;;;;;491281;240;1545;-70
2021/08/18 05:17:51;;;;;;;;;;;24.80;46.60;;;;;;491293;240;1173;-70
2021/08/18 05:19:52;;;;;;;;;;;24.70;46.70;;;;;;491447;240;1049;-69
2021/08/18 05:21:54;;;;;;;;;;;24.80;46.80;;;;;;491455;240;1210;-70
2021/08/18 05:23:55;;;;;;;;;;;24.80;46.70;;;;;;491259;240;1103;-70
2021/08/18 05:25:56;;;;;;;;;;;24.80;46.70;;;;;;491266;240;2124;-70
2021/08/18 05:28:03;;;;;;;;;;;24.80;46.60;;;;;;491237;240;1399;-70
2021/08/18 05:30:00;;;;;;;;;;;24.80;46.70;;;;;;491256;240;1439;-70
2021/08/18 05:32:01;;;;;;;;;;;24.80;46.60;;;;;;491139;240;1385;-70
2021/08/18 05:34:02;;;;;;;;;;;24.80;46.60;;;;;;491061;240;1187;-70
2021/08/18 05:36:04;;;;;;;;;;;24.90;46.50;;;;;;491178;240;1114;-70
2021/08/18 05:38:05;;;;;;;;;;;24.80;46.50;;;;;;491147;240;1458;-70
2021/08/18 05:40:06;;;;;;;;;;;24.80;46.50;;;;;;491216;240;1114;-70
2021/08/18 05:42:08;;;;;;;;;;;24.80;46.60;;;;;;491208;240;1272;-70
2021/08/18 05:44:09;;;;;;;;;;;24.80;46.60;;;;;;491288;240;1045;-70
2021/08/18 05:46:10;;;;;;;;;;;24.80;46.70;;;;;;491276;240;2176;-70
2021/08/18 05:48:12;;;;;;;;;;;24.80;46.60;;;;;;491278;240;1063;-70
2021/08/18 05:50:13;;;;;;;;;;;24.90;46.50;;;;;;491283;240;1067;-69
2021/08/18 05:52:14;;;;;;;;;;;24.90;46.50;;;;;;491256;240;1084;-69
2021/08/18 05:54:16;;;;;;;;;;;24.90;46.60;;;;;;491288;240;1079;-70
2021/08/18 05:56:17;;;;;;;;;;;24.90;46.60;;;;;;491239;240;1170;-70
2021/08/18 05:58:19;;;;;;;;;;;24.90;46.70;;;;;;491222;240;1026;-70
2021/08/18 06:00:20;;;;;;;;;;;24.90;46.60;;;;;;491140;240;1124;-70
2021/08/18 06:02:21;;;;;;;;;;;24.90;46.40;;;;;;491047;240;1104;-70
2021/08/18 06:04:22;;;;;;;;;;;24.80;46.50;;;;;;491241;240;1054;-70
2021/08/18 06:06:24;;;;;;;;;;;24.90;46.60;;;;;;491170;240;2176;-70
2021/08/18 06:08:25;;;;;;;;;;;24.80;46.60;;;;;;491174;240;1091;-70
2021/08/18 06:10:27;;;;;;;;;;;24.80;46.70;;;;;;491106;240;1134;-70
2021/08/18 06:12:28;;;;;;;;;;;24.80;46.70;;;;;;491106;240;1180;-70
2021/08/18 06:14:29;;;;;;;;;;;24.80;46.60;;;;;;491053;240;1072;-70
2021/08/18 06:16:30;;;;;;;;;;;24.80;46.70;;;;;;491094;240;1325;-70
2021/08/18 06:18:32;;;;;;;;;;;24.80;46.70;;;;;;491101;240;1056;-70
2021/08/18 06:20:33;;;;;;;;;;;24.90;46.70;;;;;;491007;240;1538;-70
2021/08/18 06:22:35;;;;;;;;;;;24.80;46.60;;;;;;491126;240;1319;-70
2021/08/18 06:24:43;;;;;;;;;;;24.90;46.70;;;;;;491102;240;2154;-70
2021/08/18 06:26:43;;;;;;;;;;;24.90;46.70;;;;;;490981;240;1534;-70
2021/08/18 06:28:45;;;;;;;;;;;24.90;46.60;;;;;;490913;240;1096;-70
2021/08/18 06:30:46;;;;;;;;;;;24.90;46.70;;;;;;490923;240;1124;-70
2021/08/18 06:32:47;;;;;;;;;;;24.90;46.70;;;;;;491008;240;1078;-70
2021/08/18 06:34:53;;;;;;;;;;;25.00;46.50;;;;;;491078;240;1154;-70
2021/08/18 06:36:51;;;;;;;;;;;24.90;46.70;;;;;;491134;240;1472;-70
2021/08/18 06:38:52;;;;;;;;;;;24.80;46.90;;;;;;491126;240;1134;-70
2021/08/18 06:40:53;;;;;;;;;;;24.90;46.90;;;;;;490856;240;1137;-70
2021/08/18 06:42:54;;;;;;;;;;;24.80;46.80;;;;;;490819;240;1113;-70
2021/08/18 06:44:56;;;;;;;;;;;24.90;46.90;;;;;;490696;240;2187;-70
2021/08/18 06:46:57;;;;;;;;;;;24.80;46.90;;;;;;490694;240;1484;-70
2021/08/18 06:48:59;;;;;;;;;;;24.50;47.20;;;;;;490768;240;1406;-70
2021/08/18 06:51:00;;;;;;;;;;;23.40;49.50;;;;;;490844;240;1321;-70
2021/08/18 06:53:02;;;;;;;;;;;22.90;51.20;;;;;;490852;240;1082;-70
2021/08/18 06:55:02;;;;;;;;;;;22.50;52.30;;;;;;490843;240;1206;-70
2021/08/18 06:57:04;;;;;;;;;;;22.20;53.10;;;;;;490707;240;1226;-70
2021/08/18 06:59:05;;;;;;;;;;;22.10;53.60;;;;;;490660;240;1316;-70
2021/08/18 07:01:07;;;;;;;;;;;21.90;54.00;;;;;;490856;240;1305;-70
2021/08/18 07:03:08;;;;;;;;;;;21.80;54.40;;;;;;490961;240;1182;-70
2021/08/18 07:05:09;;;;;;;;;;;21.70;54.70;;;;;;490756;240;2192;-70
2021/08/18 07:07:11;;;;;;;;;;;21.70;55.00;;;;;;490812;240;1197;-70
2021/08/18 07:09:12;;;;;;;;;;;21.70;55.10;;;;;;490891;240;1129;-70
2021/08/18 07:11:13;;;;;;;;;;;21.60;55.10;;;;;;490896;240;1211;-70
2021/08/18 07:13:15;;;;;;;;;;;21.60;55.30;;;;;;490933;240;1145;-70
2021/08/18 07:15:16;;;;;;;;;;;21.50;55.40;;;;;;490919;240;1034;-70
2021/08/18 07:17:17;;;;;;;;;;;21.50;55.50;;;;;;490996;240;1122;-70
2021/08/18 07:19:19;;;;;;;;;;;21.50;55.60;;;;;;490860;240;1150;-70
2021/08/18 07:21:20;;;;;;;;;;;21.40;55.70;;;;;;490832;240;1045;-70
2021/08/18 07:23:21;;;;;;;;;;;21.40;55.90;;;;;;490933;240;1148;-70
2021/08/18 07:25:23;;;;;;;;;;;21.40;55.90;;;;;;490858;240;2199;-70
2021/08/18 07:27:24;;;;;;;;;;;21.30;55.90;;;;;;490841;240;1137;-70
2021/08/18 07:29:26;;;;;;;;;;;21.30;56.10;;;;;;490950;240;1192;-70
2021/08/18 07:31:27;;;;;;;;;;;21.30;56.20;;;;;;490861;240;1296;-70
2021/08/18 07:33:28;;;;;;;;;;;21.30;56.30;;;;;;490860;240;1104;-70
2021/08/18 07:35:30;;;;;;;;;;;21.30;56.30;;;;;;490849;240;1174;-70
2021/08/18 07:37:32;;;;;;;;;;;21.40;56.30;;;;;;490882;240;1431;-70
2021/08/18 07:39:32;;;;;;;;;;;21.40;56.20;;;;;;490821;240;1335;-70
2021/08/18 07:41:34;;;;;;;;;;;21.40;56.20;;;;;;490720;240;1080;-70
2021/08/18 07:43:35;;;;;;;;;;;21.50;56.20;;;;;;490656;240;1186;-70
2021/08/18 07:45:36;;;;;;;;;;;21.40;56.30;;;;;;490702;240;2200;-70
2021/08/18 07:47:38;;;;;;;;;;;21.30;56.50;;;;;;490779;240;1485;-70
2021/08/18 07:49:39;;;;;;;;;;;21.30;56.60;;;;;;490904;240;1113;-70
2021/08/18 07:51:40;;;;;;;;;;;21.30;56.70;;;;;;490819;240;1172;-70
2021/08/18 07:53:42;;;;;;;;;;;21.30;56.70;;;;;;490725;240;1228;-70
2021/08/18 07:55:43;;;;;;;;;;;21.30;56.70;;;;;;490675;240;1142;-70
2021/08/18 07:57:44;;;;;;;;;;;21.30;56.70;;;;;;490664;240;1206;-70
2021/08/18 07:59:46;;;;;;;;;;;21.30;56.70;;;;;;490622;240;1231;-70
2021/08/18 08:01:47;;;;;;;;;;;21.30;56.80;;;;;;490760;240;1095;-70
2021/08/18 08:03:48;;;;;;;;;;;21.30;56.70;;;;;;490778;240;1087;-70
2021/08/18 08:05:50;;;;;;;;;;;21.30;56.70;;;;;;490721;240;2180;-70
2021/08/18 08:07:51;;;;;;;;;;;21.30;56.80;;;;;;490614;240;1235;-70
2021/08/18 08:09:52;;;;;;;;;;;21.30;56.70;;;;;;490597;240;1155;-70
2021/08/18 08:11:53;;;;;;;;;;;21.30;56.70;;;;;;490626;240;1274;-70
2021/08/18 08:13:55;;;;;;;;;;;21.30;56.80;;;;;;490704;240;1325;-70
2021/08/18 08:15:56;;;;;;;;;;;21.30;56.90;;;;;;490652;240;1169;-70
2021/08/18 08:17:57;;;;;;;;;;;21.20;57.00;;;;;;490688;240;1113;-70
2021/08/18 08:19:59;;;;;;;;;;;21.30;57.00;;;;;;490558;240;1061;-70
2021/08/18 08:22:00;;;;;;;;;;;21.20;57.00;;;;;;490427;240;1378;-70
2021/08/18 08:24:01;;;;;;;;;;;21.20;57.10;;;;;;490780;240;1092;-70
2021/08/18 08:26:03;;;;;;;;;;;21.20;57.20;;;;;;490674;240;2180;-70
2021/08/18 08:28:04;;;;;;;;;;;21.30;57.20;;;;;;490686;240;1329;-70
2021/08/18 08:30:07;;;;;;;;;;;21.30;57.10;;;;;;490721;240;1123;-70
2021/08/18 08:32:08;;;;;;;;;;;21.30;57.20;;;;;;490625;240;1072;-70
2021/08/18 08:34:09;;;;;;;;;;;21.30;57.10;;;;;;490546;240;1116;-69
2021/08/18 08:36:11;;;;;;;;;;;21.30;57.20;;;;;;490537;240;1160;-70
2021/08/18 08:38:13;;;;;;;;;;;21.30;57.10;;;;;;490582;240;1117;-70
2021/08/18 08:40:13;;;;;;;;;;;21.30;57.10;;;;;;490485;240;1396;-69
2021/08/18 08:42:15;;;;;;;;;;;21.30;57.10;;;;;;490456;240;1417;-69
2021/08/18 08:44:16;;;;;;;;;;;21.20;57.20;;;;;;490629;240;1191;-70
2021/08/18 08:46:18;;;;;;;;;;;21.20;57.30;;;;;;490631;240;2192;-70
2021/08/18 08:48:19;;;;;;;;;;;21.20;57.20;;;;;;490607;240;1220;-70
2021/08/18 08:50:20;;;;;;;;;;;21.20;57.10;;;;;;490654;240;1608;-70
2021/08/18 08:52:22;;;;;;;;;;;21.30;57.20;;;;;;490641;240;1158;-70
2021/08/18 08:54:23;;;;;;;;;;;21.30;57.20;;;;;;490561;240;1142;-70
2021/08/18 08:56:24;;;;;;;;;;;21.30;57.10;;;;;;490436;240;1279;-70
2021/08/18 08:58:26;;;;;;;;;;;21.30;57.20;;;;;;490491;240;1141;-70
2021/08/18 09:00:27;;;;;;;;;;;21.30;57.10;;;;;;490663;240;1192;-70
2021/08/18 09:02:28;;;;;;;;;;;21.30;57.10;;;;;;490620;240;1130;-70
2021/08/18 09:04:30;;;;;;;;;;;21.30;57.20;;;;;;490557;240;1074;-70
2021/08/18 09:06:33;;;;;;;;;;;21.20;57.20;;;;;;490505;240;2196;-70
2021/08/18 09:08:32;;;;;;;;;;;21.20;57.30;;;;;;490566;240;1315;-70
2021/08/18 09:10:34;;;;;;;;;;;21.20;57.30;;;;;;490590;240;1099;-70
2021/08/18 09:12:35;;;;;;;;;;;21.20;57.30;;;;;;490630;240;1295;-70
2021/08/18 09:14:36;;;;;;;;;;;21.20;57.30;;;;;;490646;240;1137;-70
2021/08/18 09:16:38;;;;;;;;;;;21.20;57.30;;;;;;490651;240;1227;-70
2021/08/18 09:18:39;;;;;;;;;;;21.30;57.20;;;;;;490591;240;1167;-70
2021/08/18 09:20:40;;;;;;;;;;;21.30;57.10;;;;;;490655;240;1215;-70
2021/08/18 09:22:42;;;;;;;;;;;21.30;57.10;;;;;;490693;240;1268;-70
2021/08/18 09:24:43;;;;;;;;;;;21.30;57.20;;;;;;490689;240;1095;-70
2021/08/18 09:26:46;;;;;;;;;;;21.20;57.10;;;;;;490664;240;2176;-70
2021/08/18 09:28:46;;;;;;;;;;;21.20;57.20;;;;;;490541;240;1427;-70
2021/08/18 09:30:48;;;;;;;;;;;21.30;57.10;;;;;;490541;240;1077;-70
2021/08/18 09:32:49;;;;;;;;;;;21.40;56.70;;;;;;490587;240;1134;-70
2021/08/18 09:34:50;;;;;;;;;;;22.40;54.70;;;;;;490471;240;1096;-70
2021/08/18 09:36:52;;;;;;;;;;;22.80;53.20;;;;;;490505;240;1390;-70
2021/08/18 09:38:53;;;;;;;;;;;23.10;52.40;;;;;;490515;240;1141;-70
2021/08/18 09:40:54;;;;;;;;;;;23.50;51.70;;;;;;490409;240;1182;-70
2021/08/18 09:42:56;;;;;;;;;;;23.70;51.10;;;;;;490528;240;1071;-70
2021/08/18 09:44:57;;;;;;;;;;;23.80;50.70;;;;;;490597;240;1183;-70
2021/08/18 09:46:58;;;;;;;;;;;23.10;51.60;;;;;;490615;240;2187;-70
2021/08/18 09:49:00;;;;;;;;;;;22.50;53.30;;;;;;490610;240;1069;-70
2021/08/18 09:51:01;;;;;;;;;;;22.20;54.30;;;;;;490657;240;1129;-70
2021/08/18 09:53:02;;;;;;;;;;;22.00;54.90;;;;;;490677;240;1163;-70
2021/08/18 09:55:04;;;;;;;;;;;21.80;55.40;;;;;;490617;240;1055;-70
2021/08/18 09:57:05;;;;;;;;;;;21.70;55.60;;;;;;490759;240;1317;-70
2021/08/18 09:59:07;;;;;;;;;;;21.60;56.00;;;;;;490776;240;1096;-70
2021/08/18 10:01:10;;;;;;;;;;;21.50;56.30;;;;;;490664;240;1465;-70
2021/08/18 10:03:09;;;;;;;;;;;21.50;56.40;;;;;;490665;240;1429;-70
2021/08/18 10:05:12;;;;;;;;;;;21.50;56.50;;;;;;490727;240;1140;-70
2021/08/18 10:07:12;;;;;;;;;;;21.40;56.60;;;;;;490554;240;2175;-70
2021/08/18 10:09:14;;;;;;;;;;;21.40;56.60;;;;;;490568;240;1122;-70
2021/08/18 10:11:15;;;;;;;;;;;21.50;56.60;;;;;;490496;240;1196;-70
2021/08/18 10:13:16;;;;;;;;;;;21.50;56.50;;;;;;491012;240;1033;-70
2021/08/18 10:15:18;;;;;;;;;;;21.50;56.70;;;;;;490681;240;1223;-70
2021/08/18 10:17:19;;;;;;;;;;;21.40;56.70;;;;;;489868;240;1095;-70
2021/08/18 10:19:20;;;;;;;;;;;21.50;56.70;;;;;;490747;240;1175;-70
2021/08/18 10:21:22;;;;;;;;;;;21.60;56.40;;;;;;490562;240;1229;-70
2021/08/18 10:23:23;;;;;;;;;;;22.40;54.80;;;;;;490755;240;1224;-70
2021/08/18 10:25:24;;;;;;;;;;;22.90;53.20;;;;;;490982;240;1051;-70
2021/08/18 10:27:26;;;;;;;;;;;23.40;52.10;;;;;;490645;241;2593;-70
2021/08/18 10:29:29;;;;;;;;;;;23.70;51.20;;;;;;490604;240;1227;-70
2021/08/18 10:31:28;;;;;;;;;;;23.10;51.50;;;;;;490514;240;1290;-70
2021/08/18 10:33:29;;;;;;;;;;;22.60;53.30;;;;;;490566;240;1090;-70
2021/08/18 10:35:31;;;;;;;;;;;22.20;54.30;;;;;;490376;241;1387;-70
2021/08/18 10:37:32;;;;;;;;;;;22.00;55.00;;;;;;490479;240;1236;-70
2021/08/18 10:39:33;;;;;;;;;;;21.80;55.50;;;;;;490450;240;1096;-70
2021/08/18 10:41:35;;;;;;;;;;;21.70;55.80;;;;;;490317;240;1259;-70
2021/08/18 10:43:36;;;;;;;;;;;21.70;56.00;;;;;;490413;240;1089;-70
2021/08/18 10:45:37;;;;;;;;;;;21.70;56.10;;;;;;490464;240;1208;-70
2021/08/18 10:47:39;;;;;;;;;;;21.60;56.20;;;;;;490402;240;2172;-70
2021/08/18 10:49:40;;;;;;;;;;;21.50;56.30;;;;;;490644;240;1079;-70
2021/08/18 10:51:42;;;;;;;;;;;21.60;56.30;;;;;;490626;240;1192;-70
2021/08/18 10:53:43;;;;;;;;;;;21.70;56.10;;;;;;490715;240;1085;-70
2021/08/18 10:55:44;;;;;;;;;;;22.60;54.10;;;;;;490782;240;1223;-70
2021/08/18 10:57:48;;;;;;;;;;;22.30;54.00;;;;;;490888;240;1243;-70
2021/08/18 10:59:47;;;;;;;;;;;22.00;54.90;;;;;;490534;240;1265;-70
2021/08/18 11:01:48;;;;;;;;;;;21.80;55.40;;;;;;490507;240;1265;-70
2021/08/18 11:03:50;;;;;;;;;;;21.70;55.90;;;;;;491156;240;865;-70
2021/08/18 11:05:51;;;;;;;;;;;21.60;56.10;;;;;;490757;240;1334;-70
2021/08/18 11:07:52;;;;;;;;;;;21.60;56.30;;;;;;490626;240;2180;-70
2021/08/18 11:09:54;;;;;;;;;;;21.50;56.40;;;;;;490455;240;1129;-70
2021/08/18 11:11:55;;;;;;;;;;;21.50;56.60;;;;;;490377;240;1124;-70
2021/08/18 11:13:56;;;;;;;;;;;21.50;56.70;;;;;;490649;240;1148;-70
2021/08/18 11:15:58;;;;;;;;;;;21.40;56.80;;;;;;490766;240;1195;-70
2021/08/18 11:17:59;;;;;;;;;;;21.40;57.00;;;;;;490674;240;1184;-70
2021/08/18 11:20:00;;;;;;;;;;;21.40;57.10;;;;;;490639;240;1095;-70
2021/08/18 11:22:01;;;;;;;;;;;21.40;57.20;;;;;;490719;240;1221;-70
2021/08/18 11:24:03;;;;;;;;;;;21.40;57.20;;;;;;490791;240;1203;-70
2021/08/18 11:26:04;;;;;;;;;;;21.30;57.20;;;;;;490825;240;1051;-70
2021/08/18 11:28:06;;;;;;;;;;;21.30;57.30;;;;;;491336;240;2176;-70
2021/08/18 11:30:07;;;;;;;;;;;21.30;57.40;;;;;;491334;240;1096;-70
2021/08/18 11:32:08;;;;;;;;;;;21.30;57.40;;;;;;491175;240;924;-70
2021/08/18 11:34:09;;;;;;;;;;;21.30;57.50;;;;;;490788;240;1116;-70
2021/08/18 11:36:11;;;;;;;;;;;21.30;57.50;;;;;;490435;240;1448;-70
2021/08/18 11:38:12;;;;;;;;;;;21.30;57.60;;;;;;490602;240;1104;-70
2021/08/18 11:40:13;;;;;;;;;;;21.40;57.40;;;;;;490710;240;1136;-70
2021/08/18 11:42:15;;;;;;;;;;;21.50;57.10;;;;;;490735;240;1051;-70
2021/08/18 11:44:17;;;;;;;;;;;21.80;56.40;;;;;;490583;240;1141;-70
2021/08/18 11:46:18;;;;;;;;;;;22.10;55.60;;;;;;490542;240;1314;-70
2021/08/18 11:48:19;;;;;;;;;;;22.30;54.70;;;;;;490566;240;2180;-70
2021/08/18 11:50:22;;;;;;;;;;;22.50;54.10;;;;;;490710;240;1113;-70
2021/08/18 11:52:22;;;;;;;;;;;22.50;54.20;;;;;;490656;240;1402;-71
2021/08/18 11:54:24;;;;;;;;;;;22.70;53.80;;;;;;490609;240;1094;-70
2021/08/18 11:56:26;;;;;;;;;;;22.70;53.90;;;;;;490493;240;1375;-70